This is the latest recevied weather packets stored in our database for station/object 9M2RSI-1. If no packets are shown the sender has not sent any weather packets the latest 10 day(s).
| Time | Temp. | Humidity | Pressure | Rain* | Wind** | Luminosity | Snow |
|---|---|---|---|---|---|---|---|
| 1777869897 | 32.22° C | 66% | 1011.5 hPa | - | - | - | - |
| 1777868997 | 32.22° C | 66% | 1011.9 hPa | - | - | - | - |
| 1777867197 | 31.67° C | 70% | 1012.2 hPa | - | - | - | - |
| 1777866297 | 30.56° C | 69% | 1012.2 hPa | - | - | - | - |
| 1777865397 | 30.56° C | 70% | 1012.3 hPa | - | - | - | - |
| 1777864497 | 30.56° C | 70% | 1012.2 hPa | - | - | - | - |
| 1777863597 | 30° C | 70% | 1012.3 hPa | - | - | - | - |
| 1777862697 | 30° C | 72% | 1012.4 hPa | - | - | - | - |
| 1777861797 | 30° C | 73% | 1012.3 hPa | - | - | - | - |
| 1777860896 | 29.44° C | 76% | 1012.5 hPa | - | - | - | - |
| 1777859996 | 28.89° C | 78% | 1012.5 hPa | - | - | - | - |
| 1777859096 | 28.33° C | 77% | 1012.5 hPa | - | - | - | - |
| 1777525506 | 33.89° C | 53% | 1010 hPa | - | - | - | - |
| 1777524606 | 33.89° C | 57% | 1010.4 hPa | - | - | - | - |
| 1777523706 | 33.33° C | 58% | 1010.7 hPa | - | - | - | - |
| 1777521006 | 32.78° C | 61% | 1011.2 hPa | - | - | - | - |
| 1777520106 | 32.22° C | 62% | 1011.2 hPa | - | - | - | - |
| 1777519205 | 32.22° C | 63% | 1011.4 hPa | - | - | - | - |
| 1777516505 | 31.11° C | 71% | 1011.5 hPa | - | - | - | - |
| 1777515605 | 30.56° C | 73% | 1011.4 hPa | - | - | - | - |
| 1777514705 | 30° C | 75% | 1011.3 hPa | - | - | - | - |
| 1777513805 | 30° C | 76% | 1011.4 hPa | - | - | - | - |
| 1777512905 | 29.44° C | 78% | 1011.2 hPa | - | - | - | - |
| 1777512005 | 28.89° C | 80% | 1011 hPa | - | - | - | - |
| 1777511105 | 28.33° C | 80% | 1011 hPa | - | - | - | - |
* Rain since midnight (hover to see other rain measurements)
** Current wind speed in m/s (hover to see current wind gust speed)